Time;durP1;ratioP1;P1;durP2;ratioP2;P2;SDS_P1;SDS_P2;PMS_P1;PMS_P2;Temp;Humidity;BMP_temperature;BMP_pressure;BME280_temperature;BME280_humidity;BME280_pressure;Samples;Min_cycle;Max_cycle;Signal;HPM_P1;HPM_P2
2022/09/30 00:01:32;;;;;;;13.27;5.22;;;;;;;6.55;100.00;97888.94;5032203;28;20037;-69
2022/09/30 00:03:58;;;;;;;14.23;5.28;;;;;;;6.48;100.00;97885.38;5033737;28;20057;-68
2022/09/30 00:06:26;;;;;;;9.88;4.45;;;;;;;6.44;100.00;97889.47;5026441;28;20029;-69
2022/09/30 00:08:52;;;;;;;11.32;4.28;;;;;;;6.33;100.00;97897.06;5027343;28;20541;-69
2022/09/30 00:11:27;;;;;;;11.35;6.55;;;;;;;6.18;100.00;97885.63;5025940;28;20029;-68
2022/09/30 00:13:54;;;;;;;11.93;5.75;;;;;;;6.17;100.00;97896.56;5023371;28;20029;-69
2022/09/30 00:16:21;;;;;;;9.63;6.18;;;;;;;6.02;100.00;97889.44;5028149;28;20021;-69
2022/09/30 00:18:47;;;;;;;10.35;5.90;;;;;;;5.97;100.00;97883.84;5024240;28;20040;-68
2022/09/30 00:21:14;;;;;;;11.23;5.15;;;;;;;6.09;100.00;97878.75;5020968;28;20033;-69
2022/09/30 00:23:41;;;;;;;10.05;6.10;;;;;;;6.33;100.00;97885.50;5035577;28;20087;-69
2022/09/30 00:26:18;;;;;;;10.15;5.75;;;;;;;6.34;100.00;97893.38;5027008;28;20866;-68
2022/09/30 00:28:48;;;;;;;11.13;4.85;;;;;;;6.20;100.00;97880.88;5024681;28;20041;-68
2022/09/30 00:31:15;;;;;;;6.82;4.28;;;;;;;6.25;100.00;97897.25;5029848;28;20076;-68
2022/09/30 00:33:41;;;;;;;16.10;4.57;;;;;;;6.20;100.00;97899.69;5026699;28;20025;-69
2022/09/30 00:36:07;;;;;;;7.35;4.22;;;;;;;6.24;100.00;97900.97;5025118;28;20033;-68
2022/09/30 00:38:33;;;;;;;6.45;3.85;;;;;;;6.16;100.00;97895.75;5028013;28;20025;-69
2022/09/30 00:41:00;;;;;;;9.10;4.63;;;;;;;6.08;100.00;97899.41;5029325;28;20032;-69
2022/09/30 00:43:42;;;;;;;10.38;4.60;;;;;;;5.91;100.00;97901.53;5031107;28;20063;-69
2022/09/30 00:46:34;;;;;;;7.35;4.20;;;;;;;5.74;100.00;97894.81;5027700;28;20032;-69
2022/09/30 00:49:06;;;;;;;13.15;3.83;;;;;;;5.68;100.00;97892.91;5022498;28;20080;-69
2022/09/30 00:51:36;;;;;;;8.63;4.20;;;;;;;5.59;100.00;97877.97;5023890;28;20029;-69
2022/09/30 00:54:09;;;;;;;8.10;3.97;;;;;;;5.52;100.00;97877.91;5029610;28;20486;-68
2022/09/30 00:56:40;;;;;;;6.07;4.15;;;;;;;5.66;100.00;97884.22;5028140;28;20075;-69
2022/09/30 00:59:12;;;;;;;10.32;4.05;;;;;;;5.64;100.00;97891.63;5029601;28;20036;-69
2022/09/30 01:01:39;;;;;;;7.57;4.25;;;;;;;5.65;100.00;97888.75;5032110;28;20025;-69
2022/09/30 01:04:13;;;;;;;9.45;4.85;;;;;;;5.53;100.00;97898.38;5012979;28;20037;-69
2022/09/30 01:06:39;;;;;;;13.95;4.38;;;;;;;5.47;100.00;97905.31;5024682;28;20032;-69
2022/09/30 01:09:05;;;;;;;10.18;4.68;;;;;;;5.51;100.00;97899.59;5026781;28;20128;-69
2022/09/30 01:11:30;;;;;;;5.20;3.85;;;;;;;5.47;100.00;97913.34;5023082;28;20147;-69
2022/09/30 01:14:00;;;;;;;8.40;4.22;;;;;;;5.42;100.00;97912.28;5029066;28;20064;-68
2022/09/30 01:16:40;;;;;;;9.98;4.00;;;;;;;5.35;100.00;97920.28;5028562;28;20041;-69
2022/09/30 01:19:23;;;;;;;8.75;4.03;;;;;;;5.35;100.00;97914.91;5034492;28;20041;-68
2022/09/30 01:22:07;;;;;;;10.05;4.75;;;;;;;5.39;100.00;97918.03;5024395;28;20112;-69
2022/09/30 01:24:41;;;;;;;7.63;3.97;;;;;;;5.41;100.00;97914.13;5023356;28;20535;-68
2022/09/30 01:27:14;;;;;;;8.82;4.10;;;;;;;5.45;100.00;97919.97;5027665;28;20028;-69
2022/09/30 01:29:55;;;;;;;8.52;4.40;;;;;;;5.51;100.00;97913.00;5029162;28;20398;-69
2022/09/30 01:32:41;;;;;;;6.13;4.00;;;;;;;5.49;100.00;97916.69;5020243;28;20056;-69
2022/09/30 01:35:22;;;;;;;10.25;4.53;;;;;;;5.41;100.00;97919.50;5024889;28;20049;-69
2022/09/30 01:37:59;;;;;;;10.57;3.38;;;;;;;5.43;100.00;97925.50;5031073;28;20131;-68
2022/09/30 01:40:29;;;;;;;12.32;8.95;;;;;;;5.45;100.00;97930.69;5028991;28;20025;-69
2022/09/30 01:43:03;;;;;;;9.48;6.57;;;;;;;5.40;100.00;97927.75;5025235;28;20048;-69
2022/09/30 01:45:41;;;;;;;9.88;5.40;;;;;;;5.27;100.00;97915.88;5022186;28;20437;-69
2022/09/30 01:48:32;;;;;;;12.93;6.30;;;;;;;5.31;100.00;97935.06;5029243;28;20116;-68
2022/09/30 01:51:06;;;;;;;10.90;5.60;;;;;;;5.23;100.00;97932.53;5043632;28;20039;-69
2022/09/30 01:53:49;;;;;;;9.50;4.35;;;;;;;5.17;100.00;97927.94;5028137;28;20029;-69
2022/09/30 01:56:24;;;;;;;7.95;4.70;;;;;;;5.14;100.00;97922.97;5029661;28;20021;-68
2022/09/30 01:58:56;;;;;;;9.82;4.50;;;;;;;5.13;100.00;97938.19;5025756;28;20499;-69
2022/09/30 02:01:34;;;;;;;8.40;4.38;;;;;;;5.05;100.00;97936.47;5025146;28;20079;-68
2022/09/30 02:04:10;;;;;;;10.10;4.60;;;;;;;5.10;100.00;97949.31;5029310;28;20028;-69
2022/09/30 02:06:40;;;;;;;8.18;4.15;;;;;;;4.96;100.00;97931.41;5025624;28;20120;-68
2022/09/30 02:09:26;;;;;;;10.93;4.78;;;;;;;5.07;100.00;97948.84;5020589;28;20537;-69
2022/09/30 02:11:55;;;;;;;8.93;4.50;;;;;;;5.05;100.00;97941.81;5027040;28;20490;-68
2022/09/30 02:14:28;;;;;;;9.82;4.50;;;;;;;5.03;100.00;97954.59;5028536;28;20025;-68
2022/09/30 02:17:07;;;;;;;9.05;5.28;;;;;;;4.92;100.00;97938.16;5023985;28;20021;-69
2022/09/30 02:19:38;;;;;;;7.18;4.38;;;;;;;4.96;100.00;97948.31;5022157;28;20025;-68
2022/09/30 02:22:13;;;;;;;9.18;5.07;;;;;;;5.13;100.00;97969.53;5023933;28;20044;-69
2022/09/30 02:24:42;;;;;;;8.70;4.82;;;;;;;5.27;100.00;97976.72;5024624;28;20510;-69
2022/09/30 02:27:16;;;;;;;9.63;5.43;;;;;;;5.40;100.00;97976.88;5021460;28;20107;-69
2022/09/30 02:29:48;;;;;;;8.02;4.55;;;;;;;5.51;100.00;97983.56;5020654;28;20044;-69
2022/09/30 02:32:29;;;;;;;10.68;4.97;;;;;;;5.52;100.00;97985.22;5030623;28;20034;-68
2022/09/30 02:35:22;;;;;;;9.70;4.47;;;;;;;5.55;100.00;97989.38;5017947;28;20419;-69
2022/09/30 02:37:52;;;;;;;7.47;4.60;;;;;;;5.48;100.00;97968.69;5023170;28;20122;-69
2022/09/30 02:40:27;;;;;;;10.85;5.47;;;;;;;5.62;100.00;97971.50;5031303;28;20119;-68
2022/09/30 02:42:52;;;;;;;9.48;4.60;;;;;;;5.75;100.00;97968.94;5032308;28;20032;-68
2022/09/30 02:45:20;;;;;;;8.43;4.60;;;;;;;5.80;100.00;97982.59;5021637;28;20144;-69
2022/09/30 02:48:07;;;;;;;7.93;4.85;;;;;;;5.80;100.00;97982.59;5021595;28;20417;-68
2022/09/30 02:50:42;;;;;;;7.95;4.38;;;;;;;5.78;100.00;97968.53;5031399;28;20056;-68
2022/09/30 02:53:41;;;;;;;11.02;4.68;;;;;;;5.86;100.00;97981.81;5031698;28;20505;-68
2022/09/30 02:56:25;;;;;;;8.20;4.47;;;;;;;5.82;100.00;97980.56;5020616;28;20061;-69
2022/09/30 02:58:55;;;;;;;9.88;4.78;;;;;;;5.72;100.00;97970.16;5032179;28;20142;-69
2022/09/30 03:01:20;;;;;;;9.00;4.07;;;;;;;5.66;100.00;97954.81;5039472;22;20042;-69
2022/09/30 03:03:52;;;;;;;7.53;4.13;;;;;;;5.81;100.00;97983.44;5017401;28;20036;-70
2022/09/30 03:06:19;;;;;;;8.70;4.90;;;;;;;5.78;100.00;97975.75;5014035;28;20057;-70
2022/09/30 03:08:45;;;;;;;10.38;4.25;;;;;;;5.69;100.00;97975.06;5021371;28;20033;-69
2022/09/30 03:11:16;;;;;;;6.85;4.25;;;;;;;5.75;100.00;97994.94;5015709;28;20112;-69
2022/09/30 03:13:56;;;;;;;9.38;5.10;;;;;;;5.81;100.00;97988.78;5010938;28;20029;-68
2022/09/30 03:16:39;;;;;;;7.65;4.78;;;;;;;5.78;100.00;97976.59;5014887;28;20088;-74
2022/09/30 03:19:26;;;;;;;10.68;5.10;;;;;;;5.85;100.00;97960.56;5025233;28;20018;-74
2022/09/30 03:22:22;;;;;;;9.93;4.20;;;;;;;6.00;100.00;97982.81;5017110;28;20030;-70
2022/09/30 03:25:03;;;;;;;10.50;4.85;;;;;;;5.87;100.00;97991.56;5016870;28;20053;-70
2022/09/30 03:27:44;;;;;;;10.70;3.72;;;;;;;5.79;100.00;97998.88;5014653;28;20021;-68
2022/09/30 03:30:17;;;;;;;6.30;3.67;;;;;;;5.68;100.00;97998.38;5002740;28;20030;-69
2022/09/30 03:32:57;;;;;;;7.75;4.47;;;;;;;5.58;100.00;98005.94;5012944;28;20088;-69
2022/09/30 03:35:50;;;;;;;7.93;4.25;;;;;;;5.46;100.00;98005.59;5015870;28;20041;-70
2022/09/30 03:38:28;;;;;;;7.35;4.40;;;;;;;5.41;100.00;98004.50;5029397;28;20033;-67
2022/09/30 03:41:05;;;;;;;6.97;3.95;;;;;;;5.38;100.00;98005.72;5017504;28;20155;-70
2022/09/30 03:43:42;;;;;;;8.27;4.13;;;;;;;5.31;100.00;97998.63;5004820;28;20104;-70
2022/09/30 03:46:20;;;;;;;8.32;4.93;;;;;;;5.22;100.00;98000.59;5012129;28;20103;-73
2022/09/30 03:48:49;;;;;;;8.30;4.53;;;;;;;5.11;100.00;97998.38;5015067;28;20022;-72
2022/09/30 03:51:16;;;;;;;9.07;5.00;;;;;;;5.11;100.00;98014.47;5002175;28;20040;-71
2022/09/30 03:53:42;;;;;;;8.40;4.88;;;;;;;4.92;100.00;97992.59;5009120;28;20047;-70
2022/09/30 03:56:08;;;;;;;8.98;4.45;;;;;;;4.99;100.00;98016.81;5011688;28;20028;-71
2022/09/30 03:58:35;;;;;;;11.23;5.32;;;;;;;5.05;100.00;98019.56;5010349;28;20021;-71
2022/09/30 04:01:00;;;;;;;9.93;5.43;;;;;;;5.15;100.00;98029.19;5015564;28;20025;-71
2022/09/30 04:03:26;;;;;;;10.02;5.65;;;;;;;5.07;100.00;98024.75;5005565;28;20544;-69
2022/09/30 04:05:52;;;;;;;12.13;5.90;;;;;;;5.07;100.00;98032.78;5006916;28;20124;-70
2022/09/30 04:08:18;;;;;;;11.95;5.30;;;;;;;5.08;100.00;98023.72;5013333;28;20395;-73
2022/09/30 04:10:43;;;;;;;17.52;5.65;;;;;;;5.03;100.00;98027.00;5003329;28;20034;-73
2022/09/30 04:13:09;;;;;;;7.78;5.03;;;;;;;5.01;100.00;98046.94;5009811;28;20467;-77
2022/09/30 04:15:35;;;;;;;8.50;5.05;;;;;;;4.97;100.00;98051.84;5020786;28;20029;-78
2022/09/30 04:18:01;;;;;;;11.52;6.30;;;;;;;4.74;100.00;98025.16;5013546;28;20472;-75
2022/09/30 04:20:28;;;;;;;9.88;5.50;;;;;;;4.80;100.00;98051.22;5011531;28;20098;-75
2022/09/30 04:22:56;;;;;;;8.85;4.93;;;;;;;4.59;100.00;98043.91;5013213;28;20088;-72
2022/09/30 04:25:22;;;;;;;8.60;4.77;;;;;;;4.46;100.00;98024.13;5009334;28;20068;-73
2022/09/30 04:27:47;;;;;;;8.82;5.32;;;;;;;4.43;100.00;98038.72;5023049;28;20256;-73
2022/09/30 04:30:12;;;;;;;9.13;5.20;;;;;;;4.50;100.00;98045.00;5012263;28;20029;-71
2022/09/30 04:32:44;;;;;;;10.70;5.03;;;;;;;4.52;100.00;98051.00;5011906;28;20586;-69
2022/09/30 04:35:11;;;;;;;8.50;5.20;;;;;;;4.35;100.00;98030.78;5013918;28;20045;-72
2022/09/30 04:37:40;;;;;;;10.73;5.25;;;;;;;4.33;100.00;98035.47;5007952;28;20030;-72
2022/09/30 04:40:08;;;;;;;9.93;4.55;;;;;;;4.39;100.00;98048.94;5012626;28;20030;-70
2022/09/30 04:42:33;;;;;;;8.85;4.90;;;;;;;4.28;100.00;98041.38;5014314;28;20033;-72
2022/09/30 04:44:59;;;;;;;7.97;4.20;;;;;;;3.71;100.00;97973.13;5017694;28;20589;-73
2022/09/30 04:47:24;;;;;;;8.95;4.95;;;;;;;3.93;100.00;98024.97;5009897;28;20028;-71
2022/09/30 04:49:49;;;;;;;12.18;5.15;;;;;;;3.89;100.00;98022.81;5011950;28;20030;-73
2022/09/30 04:52:15;;;;;;;8.63;6.10;;;;;;;4.05;100.00;98049.44;5011782;28;20029;-71
2022/09/30 04:54:40;;;;;;;17.92;5.93;;;;;;;4.11;100.00;98070.16;5018034;28;20479;-72
2022/09/30 04:57:05;;;;;;;8.35;4.90;;;;;;;4.01;100.00;98056.19;5013640;28;20057;-75
2022/09/30 04:59:32;;;;;;;8.88;5.13;;;;;;;4.14;100.00;98080.50;5006756;28;20097;-71
2022/09/30 05:01:58;;;;;;;12.13;6.60;;;;;;;4.22;100.00;98074.25;5007512;28;20422;-73
2022/09/30 05:04:23;;;;;;;11.07;6.55;;;;;;;4.26;100.00;98077.38;5010843;28;20134;-71
2022/09/30 05:06:49;;;;;;;9.57;5.88;;;;;;;4.11;100.00;98067.47;5016587;28;20418;-72
2022/09/30 05:09:14;;;;;;;11.25;5.93;;;;;;;4.15;100.00;98075.97;5006832;28;20049;-76
2022/09/30 05:11:41;;;;;;;10.88;5.75;;;;;;;4.14;100.00;98066.28;5014468;28;20105;-76
2022/09/30 05:14:10;;;;;;;9.25;6.43;;;;;;;4.24;100.00;98072.19;5012503;28;20068;-78
2022/09/30 05:16:36;;;;;;;12.73;7.00;;;;;;;4.32;100.00;98088.22;5033178;28;20453;-75
2022/09/30 05:19:01;;;;;;;11.48;6.90;;;;;;;4.42;100.00;98101.31;5040673;28;20479;-77
2022/09/30 05:21:27;;;;;;;16.48;7.15;;;;;;;4.01;100.00;98060.69;5014114;28;20026;-75
2022/09/30 05:23:53;;;;;;;10.52;5.60;;;;;;;4.19;100.00;98096.00;5012917;28;20048;-77
2022/09/30 05:26:18;;;;;;;13.30;6.90;;;;;;;4.16;100.00;98088.31;5013878;28;20076;-75
2022/09/30 05:28:43;;;;;;;13.75;5.65;;;;;;;4.21;100.00;98093.97;5018699;28;20084;-80
2022/09/30 05:31:11;;;;;;;9.60;6.10;;;;;;;4.22;100.00;98081.41;5015442;28;20032;-78
2022/09/30 05:33:36;;;;;;;10.98;6.00;;;;;;;4.21;100.00;98087.78;5012972;28;20423;-73
2022/09/30 05:36:06;;;;;;;19.20;6.55;;;;;;;4.43;100.00;98113.72;5026034;28;20109;-67
2022/09/30 05:38:32;;;;;;;16.95;7.88;;;;;;;4.08;100.00;98057.09;5007263;28;20026;-77
2022/09/30 05:40:58;;;;;;;17.45;7.65;;;;;;;4.40;100.00;98119.41;5018454;28;20022;-74
2022/09/30 05:43:23;;;;;;;14.88;7.82;;;;;;;4.38;100.00;98116.09;5010906;28;20404;-73
2022/09/30 05:45:56;;;;;;;18.85;10.40;;;;;;;4.43;100.00;98104.81;5009497;28;20472;-74
2022/09/30 05:48:22;;;;;;;15.88;8.43;;;;;;;4.67;100.00;98125.22;5010577;28;20038;-72
2022/09/30 05:50:49;;;;;;;14.27;8.65;;;;;;;4.69;100.00;98096.38;5005664;28;20106;-73
2022/09/30 05:53:16;;;;;;;14.70;8.18;;;;;;;5.81;100.00;98133.75;5003996;28;20026;-69
2022/09/30 05:55:45;;;;;;;15.57;8.10;;;;;;;7.17;100.00;98121.91;5002971;28;20034;-69
2022/09/30 05:58:10;;;;;;;23.80;10.02;;;;;;;8.65;100.00;98097.88;5013082;28;20053;-69
2022/09/30 06:00:39;;;;;;;22.27;10.75;;;;;;;9.71;100.00;98080.53;5002032;28;20072;-73
2022/09/30 06:03:05;;;;;;;55.10;20.50;;;;;;;10.52;100.00;98073.59;5002449;28;20025;-69
2022/09/30 06:05:30;;;;;;;41.53;14.70;;;;;;;11.12;99.74;98079.28;5000695;28;20030;-69
2022/09/30 06:07:56;;;;;;;18.73;8.35;;;;;;;11.89;100.00;98077.94;5005979;28;20026;-69
2022/09/30 06:10:22;;;;;;;43.13;16.25;;;;;;;11.91;98.56;98065.81;5001553;28;20042;-69
2022/09/30 06:12:48;;;;;;;30.48;11.82;;;;;;;11.83;86.43;98090.50;5002668;28;20077;-71
2022/09/30 06:15:13;;;;;;;64.40;16.92;;;;;;;10.53;95.09;98070.69;5019953;28;20029;-69
2022/09/30 06:17:41;;;;;;;77.82;20.77;;;;;;;10.37;99.78;98086.63;5017662;28;20053;-69
2022/09/30 06:20:08;;;;;;;252.10;66.95;;;;;;;10.33;100.00;98101.63;5004668;28;20523;-69
2022/09/30 06:22:34;;;;;;;242.00;63.35;;;;;;;10.29;98.67;98110.16;5001480;28;20049;-68
2022/09/30 06:25:01;;;;;;;145.40;37.70;;;;;;;11.08;91.02;98088.91;5000939;28;20053;-75
2022/09/30 06:27:27;;;;;;;85.57;25.15;;;;;;;12.61;83.18;98086.06;5003377;28;20023;-71
2022/09/30 06:29:52;;;;;;;51.88;16.65;;;;;;;13.31;72.42;98093.41;5006232;28;20028;-76
2022/09/30 06:32:17;;;;;;;42.45;13.38;;;;;;;13.65;71.88;98086.25;5004208;28;20105;-69
2022/09/30 06:34:43;;;;;;;19.38;7.43;;;;;;;13.80;70.37;98113.72;5006782;28;20044;-74
2022/09/30 06:37:10;;;;;;;12.40;5.13;;;;;;;13.32;70.27;98104.03;5005628;28;20030;-73
2022/09/30 06:39:35;;;;;;;11.80;4.30;;;;;;;13.74;69.53;98094.84;5008864;28;20080;-72
2022/09/30 06:42:01;;;;;;;11.70;4.03;;;;;;;13.91;68.30;98111.22;5009028;28;20108;-74
2022/09/30 06:44:26;;;;;;;10.68;3.30;;;;;;;13.31;73.00;98118.69;5004358;28;20085;-69
2022/09/30 06:46:52;;;;;;;10.98;3.92;;;;;;;13.75;69.94;98113.66;5007782;28;20052;-70
2022/09/30 06:49:18;;;;;;;6.18;3.80;;;;;;;14.40;67.75;98122.47;5009499;28;20029;-76
2022/09/30 06:51:43;;;;;;;10.50;3.60;;;;;;;15.46;62.74;98100.75;5011774;28;20033;-69
2022/09/30 06:54:09;;;;;;;6.95;3.30;;;;;;;15.43;62.53;98116.78;5008989;28;20139;-75
2022/09/30 06:56:35;;;;;;;5.47;3.03;;;;;;;16.21;61.58;98106.56;4997812;28;20026;-72
2022/09/30 06:59:01;;;;;;;5.90;2.92;;;;;;;17.03;58.29;98130.03;5013276;28;20654;-72
2022/09/30 07:01:28;;;;;;;9.68;3.83;;;;;;;16.81;60.03;98119.19;5007000;28;20036;-73
2022/09/30 07:03:56;;;;;;;6.00;3.60;;;;;;;16.30;61.65;98143.25;5001115;28;20541;-75
2022/09/30 07:06:22;;;;;;;9.15;4.47;;;;;;;16.75;59.84;98139.31;5007121;28;20380;-73
2022/09/30 07:08:47;;;;;;;11.13;4.88;;;;;;;16.32;61.80;98124.72;4999712;28;20029;-71
2022/09/30 07:11:15;;;;;;;12.48;5.18;;;;;;;17.02;58.92;98143.94;5000304;28;20045;-72
2022/09/30 07:13:45;;;;;;;7.75;4.32;;;;;;;18.98;54.26;98125.31;5009535;28;20081;-74
2022/09/30 07:16:12;;;;;;;8.52;3.65;;;;;;;19.85;50.21;98128.72;5003855;28;20080;-70
2022/09/30 07:18:41;;;;;;;7.88;3.90;;;;;;;19.38;51.50;98137.34;5008552;28;20068;-70
2022/09/30 07:21:07;;;;;;;8.15;4.53;;;;;;;17.55;56.18;98163.16;5004277;28;20040;-72
2022/09/30 07:23:33;;;;;;;9.93;3.95;;;;;;;17.16;57.56;98172.50;5009363;28;20458;-72
2022/09/30 07:26:03;;;;;;;9.13;5.40;;;;;;;17.10;58.32;98178.97;5006275;28;20049;-70
2022/09/30 07:28:32;;;;;;;8.43;4.13;;;;;;;17.23;56.61;98173.06;5008198;28;20075;-71
2022/09/30 07:31:02;;;;;;;8.43;4.75;;;;;;;18.45;54.21;98172.09;5005145;28;20140;-73
2022/09/30 07:33:29;;;;;;;7.13;4.17;;;;;;;19.18;52.51;98173.84;5007079;28;20080;-74
2022/09/30 07:35:56;;;;;;;20.17;4.78;;;;;;;19.53;52.71;98180.38;5005963;28;20022;-73
2022/09/30 07:38:24;;;;;;;28.80;5.72;;;;;;;18.63;54.35;98181.72;5003441;28;20096;-73
2022/09/30 07:40:58;;;;;;;9.25;4.72;;;;;;;16.61;58.30;98176.31;5005198;28;20026;-73
2022/09/30 07:43:26;;;;;;;16.13;4.57;;;;;;;16.02;61.63;98157.13;5009466;28;20038;-74
2022/09/30 07:45:54;;;;;;;8.23;4.97;;;;;;;16.26;61.14;98174.88;5003256;28;20072;-72
2022/09/30 07:51:04;;;;;;;8.32;4.22;;;;;;;17.18;58.61;98186.69;5006974;28;20047;-72
2022/09/30 07:53:30;;;;;;;7.78;4.63;;;;;;;17.35;58.36;98147.47;5007523;28;20030;-71
2022/09/30 07:55:56;;;;;;;7.40;4.50;;;;;;;16.79;61.55;98180.63;5005445;28;20096;-72
2022/09/30 07:58:22;;;;;;;11.20;4.63;;;;;;;17.02;61.59;98187.66;5006541;28;20026;-73
2022/09/30 08:00:50;;;;;;;8.32;4.57;;;;;;;17.07;60.13;98183.06;5012343;28;20026;-72
2022/09/30 08:03:16;;;;;;;10.15;4.35;;;;;;;17.58;59.08;98185.38;5005309;28;20064;-73
2022/09/30 08:05:44;;;;;;;12.95;5.32;;;;;;;18.22;57.81;98180.78;5013711;28;20018;-72
2022/09/30 08:08:11;;;;;;;11.15;6.13;;;;;;;17.73;58.37;98201.84;5007731;28;20098;-71
2022/09/30 08:10:37;;;;;;;10.75;4.82;;;;;;;18.86;56.55;98205.06;5011920;28;20113;-74
2022/09/30 08:13:02;;;;;;;27.05;5.85;;;;;;;20.07;53.49;98188.78;5014375;28;20472;-74
2022/09/30 08:15:27;;;;;;;10.77;6.10;;;;;;;20.44;52.00;98183.97;5004000;28;20435;-73
2022/09/30 08:17:53;;;;;;;11.52;5.55;;;;;;;20.86;50.53;98191.69;5000098;28;20084;-75
2022/09/30 08:20:18;;;;;;;10.38;5.82;;;;;;;20.46;49.88;98209.22;5004888;28;20033;-70
2022/09/30 08:22:44;;;;;;;15.00;5.90;;;;;;;21.11;49.59;98214.63;5009076;28;20026;-74
2022/09/30 08:25:09;;;;;;;14.45;6.63;;;;;;;21.41;49.24;98219.09;5007610;28;20041;-74
2022/09/30 08:27:34;;;;;;;9.65;5.88;;;;;;;22.54;47.54;98222.28;5001555;28;20033;-74
2022/09/30 08:30:00;;;;;;;9.82;5.28;;;;;;;23.02;44.26;98210.31;5012214;28;20028;-71
2022/09/30 08:32:29;;;;;;;13.00;6.15;;;;;;;22.57;45.20;98195.25;5008238;28;20029;-68
2022/09/30 08:34:54;;;;;;;12.40;6.43;;;;;;;23.63;45.33;98209.34;5006466;28;20033;-69
2022/09/30 08:37:20;;;;;;;11.35;6.15;;;;;;;24.40;43.19;98207.88;5011738;28;20029;-70
2022/09/30 08:39:47;;;;;;;11.10;6.40;;;;;;;21.45;46.72;98228.41;5008657;28;20156;-71
2022/09/30 08:42:18;;;;;;;9.60;5.25;;;;;;;21.57;48.73;98228.03;5006270;28;20029;-70
2022/09/30 08:44:46;;;;;;;8.70;4.68;;;;;;;22.66;45.40;98215.50;5003552;28;20055;-69
2022/09/30 08:47:36;;;;;;;5.95;4.30;;;;;;;23.63;43.46;98227.81;5004527;28;20028;-70
2022/09/30 08:50:13;;;;;;;10.65;5.03;;;;;;;23.04;44.39;98227.41;5009476;28;20029;-70
2022/09/30 08:52:42;;;;;;;5.80;3.95;;;;;;;23.56;42.84;98216.38;5002104;28;20041;-71
2022/09/30 08:55:19;;;;;;;7.75;3.97;;;;;;;22.31;44.99;98232.22;5006586;28;20026;-70
2022/09/30 08:57:44;;;;;;;10.60;3.95;;;;;;;22.20;46.65;98222.44;5002740;28;20096;-70
2022/09/30 09:00:14;;;;;;;4.65;3.55;;;;;;;22.56;44.79;98196.34;5002635;28;20030;-71
2022/09/30 09:02:48;;;;;;;7.93;4.18;;;;;;;23.75;44.98;98228.19;5009118;28;20053;-72
2022/09/30 09:05:30;;;;;;;5.70;4.00;;;;;;;24.56;41.41;98213.91;5010310;28;20025;-71
2022/09/30 09:08:20;;;;;;;12.73;3.80;;;;;;;25.81;41.88;98222.59;5012366;28;20018;-72
2022/09/30 09:10:53;;;;;;;5.00;3.47;;;;;;;27.26;38.51;98221.72;5027254;22;20480;-62
2022/09/30 09:13:40;;;;;;;6.45;3.00;;;;;;;28.40;36.43;98214.72;5038742;28;20091;-62
2022/09/30 09:16:33;;;;;;;5.70;3.47;;;;;;;28.13;36.15;98217.97;5037860;28;20026;-63
2022/09/30 09:18:58;;;;;;;6.95;3.28;;;;;;;27.14;36.89;98221.53;5006572;28;20481;-63
2022/09/30 09:21:49;;;;;;;4.20;2.90;;;;;;;28.11;36.53;98221.09;5025488;28;20083;-63
2022/09/30 09:24:21;;;;;;;4.50;3.55;;;;;;;28.08;36.53;98221.72;5024810;28;20026;-63
2022/09/30 09:26:48;;;;;;;5.15;3.60;;;;;;;27.89;36.04;98211.00;5017118;28;20385;-63
2022/09/30 09:29:43;;;;;;;4.90;3.20;;;;;;;26.35;38.04;98209.47;5010643;28;20053;-63
2022/09/30 09:32:18;;;;;;;6.38;3.33;;;;;;;28.25;35.73;98204.16;5027460;28;20504;-63
2022/09/30 09:34:50;;;;;;;6.10;4.18;;;;;;;27.47;36.66;98212.72;5009845;28;20030;-63
2022/09/30 09:40:42;;;;;;;5.28;3.30;;;;;;;26.21;38.84;98214.31;5015703;28;20032;-63
2022/09/30 09:43:42;;;;;;;5.80;3.88;;;;;;;25.75;39.81;98215.53;5020225;28;20111;-63
2022/09/30 09:46:38;;;;;;;7.35;3.42;;;;;;;25.94;38.11;98216.16;5024133;28;20022;-63
2022/09/30 09:49:26;;;;;;;7.47;3.60;;;;;;;26.93;37.26;98207.47;5010803;28;20138;-63
2022/09/30 09:51:58;;;;;;;5.85;3.53;;;;;;;27.80;35.56;98220.50;5031417;28;20033;-63
2022/09/30 09:54:30;;;;;;;4.95;3.47;;;;;;;27.57;35.33;98217.13;5026773;28;20056;-63
2022/09/30 09:57:04;;;;;;;6.10;3.55;;;;;;;27.61;34.78;98223.66;5013103;28;20030;-63
2022/09/30 09:59:30;;;;;;;4.18;2.55;;;;;;;25.88;36.52;98220.19;5013524;28;20088;-63
2022/09/30 10:01:55;;;;;;;6.60;3.25;;;;;;;27.03;36.21;98207.16;5021754;28;20113;-63
2022/09/30 10:04:26;;;;;;;3.60;2.45;;;;;;;28.36;33.67;98207.38;5008884;28;20120;-63
2022/09/30 10:06:59;;;;;;;3.28;2.72;;;;;;;27.50;34.36;98215.66;5040768;28;20386;-62
2022/09/30 10:09:26;;;;;;;5.18;2.58;;;;;;;27.95;33.65;98215.22;5010471;28;20037;-61
2022/09/30 10:12:11;;;;;;;4.18;2.55;;;;;;;28.00;32.64;98217.03;5014218;28;20057;-62
2022/09/30 10:14:44;;;;;;;6.38;2.08;;;;;;;28.14;31.69;98206.50;5007752;28;20117;-61
2022/09/30 10:17:18;;;;;;;2.65;2.17;;;;;;;28.09;32.71;98214.22;5009937;28;20044;-61
2022/09/30 10:20:00;;;;;;;3.28;2.05;;;;;;;27.28;34.40;98211.09;5020282;28;20030;-61
2022/09/30 10:22:29;;;;;;;3.17;1.88;;;;;;;28.75;32.26;98208.16;5009896;28;20021;-62
2022/09/30 10:25:13;;;;;;;3.45;1.70;;;;;;;29.49;31.78;98215.75;5009688;28;20054;-62
2022/09/30 10:27:48;;;;;;;4.28;2.67;;;;;;;30.15;30.98;98206.53;5030259;28;20030;-62
2022/09/30 10:30:34;;;;;;;4.60;2.70;;;;;;;29.37;30.79;98206.53;5016412;28;20030;-61
2022/09/30 10:33:03;;;;;;;2.78;1.88;;;;;;;27.39;31.69;98213.56;5018407;28;20377;-61
2022/09/30 10:35:29;;;;;;;2.97;1.95;;;;;;;27.86;32.37;98205.31;5009673;28;20030;-61
2022/09/30 10:37:58;;;;;;;36.55;4.68;;;;;;;28.48;32.63;98210.31;5012741;28;20120;-61
2022/09/30 10:40:27;;;;;;;4.38;1.90;;;;;;;27.99;32.54;98215.41;5027014;28;20157;-61
2022/09/30 10:42:54;;;;;;;4.78;2.03;;;;;;;27.62;33.59;98215.00;5014736;28;20513;-61
2022/09/30 10:45:24;;;;;;;5.70;2.45;;;;;;;28.30;32.35;98219.88;5009338;28;20033;-61
2022/09/30 10:47:53;;;;;;;3.30;2.50;;;;;;;27.11;32.68;98224.97;5008842;28;20029;-61
2022/09/30 10:50:20;;;;;;;;;;;;;;;27.42;33.13;98227.59;5010516;28;20444;-61
2022/09/30 10:52:53;;;;;;;3.25;1.58;;;;;;;28.31;31.36;98221.47;5012421;28;19909;-61
2022/09/30 10:55:19;;;;;;;3.33;1.35;;;;;;;27.91;32.84;98221.81;5043901;28;20144;-61
2022/09/30 10:57:46;;;;;;;2.72;1.50;;;;;;;29.43;30.73;98222.72;5015198;28;20462;-61
2022/09/30 11:00:17;;;;;;;2.63;1.40;;;;;;;28.93;31.38;98220.81;5016126;28;20472;-61
2022/09/30 11:03:02;;;;;;;2.88;1.27;;;;;;;28.45;31.38;98226.84;5011606;28;20029;-61
2022/09/30 11:05:39;;;;;;;4.30;1.58;;;;;;;28.13;32.16;98221.56;5005340;28;20061;-61
2022/09/30 11:08:38;;;;;;;2.15;1.33;;;;;;;29.20;30.51;98224.25;5016956;28;20024;-61
2022/09/30 11:11:47;;;;;;;3.38;1.27;;;;;;;29.66;29.89;98219.59;5017515;28;20091;-62
2022/09/30 11:14:22;;;;;;;3.38;2.25;;;;;;;29.90;30.19;98218.84;4999747;28;20038;-61
2022/09/30 11:17:09;;;;;;;3.22;2.20;;;;;;;29.93;31.32;98210.56;5007790;28;20515;-61
2022/09/30 11:19:51;;;;;;;3.58;2.05;;;;;;;29.58;30.28;98217.66;5003463;28;20086;-61
2022/09/30 11:22:25;;;;;;;4.32;2.53;;;;;;;30.11;29.82;98207.59;5034138;28;20168;-59
2022/09/30 11:24:53;;;;;;;3.53;1.83;;;;;;;28.10;31.39;98218.63;5023319;28;20119;-60
2022/09/30 11:27:24;;;;;;;3.08;1.98;;;;;;;28.61;31.60;98214.81;5013566;28;20033;-60
2022/09/30 11:30:02;;;;;;;2.70;1.52;;;;;;;30.99;30.29;98208.03;5011057;28;20121;-60
2022/09/30 11:32:36;;;;;;;3.63;2.10;;;;;;;30.84;28.81;98204.00;5019500;28;20076;-60
2022/09/30 11:35:20;;;;;;;1.95;1.17;;;;;;;29.97;28.56;98216.25;5030733;28;20029;-61
2022/09/30 11:38:21;;;;;;;2.78;1.25;;;;;;;28.03;31.08;98218.31;5016367;28;20469;-60
2022/09/30 11:40:59;;;;;;;4.28;1.75;;;;;;;27.71;30.74;98220.53;5002652;28;20574;-60
2022/09/30 11:43:24;;;;;;;2.28;1.20;;;;;;;29.15;29.54;98218.88;5009526;28;20088;-60
2022/09/30 11:46:28;;;;;;;4.28;1.40;;;;;;;27.89;31.15;98215.75;5012263;28;20513;-60
2022/09/30 11:49:07;;;;;;;3.13;1.58;;;;;;;26.87;32.06;98217.91;5027029;28;20064;-60
2022/09/30 11:51:51;;;;;;;;;;;;;;;26.30;34.04;98217.94;5025683;28;20382;-60
2022/09/30 11:54:35;;;;;;;1.27;1.17;;;;;;;28.38;31.45;98221.78;5042736;28;19917;-60
2022/09/30 11:57:10;;;;;;;2.28;1.33;;;;;;;28.61;30.94;98213.97;5014059;28;20504;-59